Time;durP1;ratioP1;P1;durP2;ratioP2;P2;SDS_P1;SDS_P2;PMS_P1;PMS_P2;Temp;Humidity;BMP_temperature;BMP_pressure;BME280_temperature;BME280_humidity;BME280_pressure;Samples;Min_cycle;Max_cycle;Signal;HPM_P1;HPM_P2
2022/12/04 00:01:22;;;;;;;1.50;1.40;;;;;;;-10.06;83.50;102216.66;4890854;29;20428;-89
2022/12/04 00:03:57;;;;;;;1.42;1.33;;;;;;;-10.04;83.33;102222.72;4878999;29;20083;-89
2022/12/04 00:06:25;;;;;;;1.40;1.30;;;;;;;-10.09;83.17;102227.19;4878601;29;20057;-89
2022/12/04 00:08:52;;;;;;;1.10;1.10;;;;;;;-10.13;83.58;102232.50;4879064;29;20053;-89
2022/12/04 00:11:22;;;;;;;1.35;1.25;;;;;;;-10.22;83.35;102220.53;4877958;29;20053;-88
2022/12/04 00:13:50;;;;;;;1.40;1.30;;;;;;;-10.25;83.40;102226.69;4877379;29;20053;-89
2022/12/04 00:16:20;;;;;;;1.20;1.20;;;;;;;-10.26;83.48;102231.91;4878814;29;20093;-89
2022/12/04 00:18:47;;;;;;;1.40;1.30;;;;;;;-10.27;83.55;102214.53;4877167;29;20425;-88
2022/12/04 00:21:16;;;;;;;1.38;1.27;;;;;;;-10.28;83.46;102233.72;4877190;29;20053;-87
2022/12/04 00:23:43;;;;;;;1.40;1.30;;;;;;;-10.32;83.34;102229.47;4876316;29;20747;-87
2022/12/04 00:26:21;;;;;;;1.40;1.30;;;;;;;-10.35;83.42;102234.78;4874849;29;20056;-87
2022/12/04 00:28:49;;;;;;;1.42;1.33;;;;;;;-10.35;83.56;102226.94;4877043;29;20497;-87
2022/12/04 00:31:19;;;;;;;1.50;1.40;;;;;;;-10.39;83.57;102214.81;4877080;29;20266;-85
2022/12/04 00:33:46;;;;;;;1.10;1.10;;;;;;;-10.36;83.51;102222.59;4876972;29;20053;-87
2022/12/04 00:36:16;;;;;;;1.30;1.20;;;;;;;-10.44;83.58;102217.53;4875697;29;20527;-88
2022/12/04 00:38:43;;;;;;;1.40;1.30;;;;;;;-10.45;83.43;102228.03;4891455;29;20053;-87
2022/12/04 00:41:13;;;;;;;1.40;1.30;;;;;;;-10.45;83.53;102222.81;4877278;29;20120;-87
2022/12/04 00:43:41;;;;;;;1.40;1.30;;;;;;;-10.50;83.50;102215.91;4877590;29;20068;-88
2022/12/04 00:46:08;;;;;;;1.40;1.30;;;;;;;-10.59;83.48;102202.19;4877260;29;20464;-88
2022/12/04 00:48:35;;;;;;;1.50;1.40;;;;;;;-10.61;83.42;102214.41;4877000;29;20049;-88
2022/12/04 00:51:08;;;;;;;1.50;1.40;;;;;;;-10.65;83.30;102215.38;4878005;29;20524;-87
2022/12/04 00:53:35;;;;;;;1.40;1.30;;;;;;;-10.69;83.45;102231.06;4879608;29;20072;-87
2022/12/04 00:56:07;;;;;;;1.50;1.40;;;;;;;-10.71;83.53;102231.97;4881323;29;20116;-87
2022/12/04 00:58:34;;;;;;;1.40;1.30;;;;;;;-10.71;83.36;102231.97;4880171;29;20088;-88
2022/12/04 01:01:04;;;;;;;1.58;1.48;;;;;;;-10.69;83.62;102222.38;4879125;29;20064;-87
2022/12/04 01:03:32;;;;;;;1.30;1.20;;;;;;;-10.78;83.42;102212.13;4880760;29;20084;-88
2022/12/04 01:06:01;;;;;;;1.40;1.30;;;;;;;-10.79;83.42;102220.84;4880412;29;20076;-88
2022/12/04 01:08:28;;;;;;;1.30;1.20;;;;;;;-10.85;83.46;102218.34;4880793;29;20140;-89
2022/12/04 01:10:55;;;;;;;1.35;1.25;;;;;;;-10.85;83.40;102218.34;4888978;29;20049;-89
2022/12/04 01:13:23;;;;;;;1.10;1.10;;;;;;;-10.85;83.53;102218.34;4885865;29;20053;-87
2022/12/04 01:15:50;;;;;;;1.50;1.40;;;;;;;-10.91;83.76;102230.63;4870929;29;20160;-88
2022/12/04 01:18:18;;;;;;;1.40;1.30;;;;;;;-10.86;83.92;102233.16;4888286;29;20059;-87
2022/12/04 01:20:50;;;;;;;1.35;1.25;;;;;;;-10.86;83.63;102240.09;4886973;29;20105;-85
2022/12/04 01:23:18;;;;;;;1.27;1.20;;;;;;;-10.87;83.72;102233.19;4884719;29;20457;-88
2022/12/04 01:25:56;;;;;;;1.38;1.27;;;;;;;-10.85;nan;102234.00;4869738;29;20488;-87
2022/12/04 01:28:24;;;;;;;1.40;1.30;;;;;;;-10.87;83.71;102231.41;4880424;29;20064;-86
2022/12/04 01:31:04;;;;;;;1.42;1.33;;;;;;;-10.86;83.75;102235.78;4878515;29;20061;-87
2022/12/04 01:33:33;;;;;;;1.50;1.40;;;;;;;-10.92;83.80;102233.25;4882168;29;20053;-88
2022/12/04 01:36:01;;;;;;;1.60;1.50;;;;;;;-10.92;83.90;102234.09;4882101;29;20049;-89
2022/12/04 01:38:28;;;;;;;1.48;1.38;;;;;;;-10.94;83.86;102242.84;4864912;29;20432;-90
2022/12/04 01:40:56;;;;;;;1.33;1.23;;;;;;;-10.96;83.74;102242.91;4880263;29;20469;-90
2022/12/04 01:43:25;;;;;;;1.15;1.15;;;;;;;-11.00;83.61;102249.06;4880324;29;20048;-89
2022/12/04 01:45:56;;;;;;;1.40;1.30;;;;;;;-10.96;83.66;102244.63;4895926;29;20124;-90
2022/12/04 01:48:29;;;;;;;1.30;1.20;;;;;;;-10.95;83.87;102255.03;4880760;29;20053;-90
2022/12/04 01:51:05;;;;;;;1.35;1.25;;;;;;;-10.94;nan;102251.56;4864664;29;20119;-89
2022/12/04 01:53:34;;;;;;;1.25;1.20;;;;;;;-10.97;83.83;102251.59;4881579;29;20555;-89
2022/12/04 01:56:02;;;;;;;1.40;1.30;;;;;;;-10.99;83.56;102250.75;4880003;29;20112;-88
2022/12/04 01:58:32;;;;;;;1.23;1.20;;;;;;;-10.99;83.80;102248.16;4880289;29;20060;-88
2022/12/04 02:01:01;;;;;;;1.40;1.30;;;;;;;-11.05;83.58;102250.88;4863964;29;20527;-89
2022/12/04 02:03:35;;;;;;;1.40;1.30;;;;;;;-11.08;83.79;102257.91;4879775;29;20057;-89
2022/12/04 02:06:02;;;;;;;1.45;1.35;;;;;;;-11.11;83.67;102245.78;4879688;29;20056;-86
2022/12/04 02:08:29;;;;;;;1.27;1.20;;;;;;;-11.15;83.67;102241.50;4894293;29;20049;-86
2022/12/04 02:11:12;;;;;;;1.45;1.35;;;;;;;-11.17;83.62;102249.34;4881511;29;20049;-86
2022/12/04 02:14:26;;;;;;;1.30;1.20;;;;;;;-11.17;83.64;102246.72;4866376;29;20072;-86
2022/12/04 02:17:31;;;;;;;1.50;1.40;;;;;;;-11.23;83.49;102251.22;4879977;29;20053;-88
2022/12/04 02:20:24;;;;;;;1.50;1.40;;;;;;;-11.25;83.68;102246.00;4878432;29;20057;-88
2022/12/04 02:23:06;;;;;;;1.35;1.25;;;;;;;-11.30;83.52;102246.97;4878753;29;20163;-88
2022/12/04 02:26:06;;;;;;;1.48;1.38;;;;;;;-11.33;83.60;102241.81;4879869;29;20124;-88
2022/12/04 02:29:18;;;;;;;1.50;1.40;;;;;;;-11.36;83.79;102248.78;4869739;29;20061;-87
2022/12/04 02:32:02;;;;;;;1.33;1.23;;;;;;;-11.38;83.54;102254.91;4879162;29;20053;-87
2022/12/04 02:34:57;;;;;;;1.50;1.40;;;;;;;-11.40;83.94;102257.53;4879264;29;20045;-88
2022/12/04 02:37:46;;;;;;;1.60;1.50;;;;;;;-11.46;83.70;102248.97;4895816;29;20154;-87
2022/12/04 02:40:27;;;;;;;1.50;1.40;;;;;;;-11.47;83.97;102245.47;4879464;29;20053;-88
2022/12/04 02:43:23;;;;;;;1.42;1.33;;;;;;;-11.46;83.81;102247.22;4879794;29;20132;-87
2022/12/04 02:46:03;;;;;;;1.50;1.40;;;;;;;-11.50;83.79;102249.91;4893490;29;20512;-88
2022/12/04 02:48:31;;;;;;;1.40;1.30;;;;;;;-11.50;84.04;102250.75;4895374;29;20061;-88
2022/12/04 02:51:01;;;;;;;1.40;1.30;;;;;;;-11.47;83.86;102250.69;4894676;29;20049;-88
2022/12/04 02:53:34;;;;;;;1.40;1.30;;;;;;;-11.50;84.00;102255.97;4891347;29;20140;-88
2022/12/04 02:56:06;;;;;;;1.70;1.60;;;;;;;-11.48;83.94;102254.19;4880146;29;20053;-88
2022/12/04 02:58:40;;;;;;;1.45;1.35;;;;;;;-11.54;84.11;102254.31;4901525;29;20056;-84
2022/12/04 03:01:19;;;;;;;1.42;1.33;;;;;;;-11.57;84.13;102255.22;4893560;29;20041;-87
2022/12/04 03:04:01;;;;;;;1.42;1.33;;;;;;;-11.58;84.20;102265.66;4888722;29;20053;-89
2022/12/04 03:06:32;;;;;;;1.38;1.27;;;;;;;-11.63;84.24;102263.13;4878935;29;20540;-88
2022/12/04 03:09:09;;;;;;;1.50;1.40;;;;;;;-11.61;84.20;102270.94;4877739;29;20063;-88
2022/12/04 03:11:38;;;;;;;1.40;1.30;;;;;;;-11.66;83.99;102270.97;4877406;29;20056;-88
2022/12/04 03:14:27;;;;;;;1.52;1.42;;;;;;;-11.69;84.14;102283.22;4862546;29;20059;-88
2022/12/04 03:17:00;;;;;;;1.25;1.20;;;;;;;-11.73;84.18;102281.53;4879519;29;20057;-89
2022/12/04 03:19:40;;;;;;;1.45;1.35;;;;;;;-11.81;84.00;102266.84;4879070;29;20116;-89
2022/12/04 03:22:12;;;;;;;1.58;1.48;;;;;;;-11.80;84.22;102271.19;4864234;29;20579;-88
2022/12/04 03:24:44;;;;;;;1.30;1.20;;;;;;;-11.83;84.31;102275.56;4865467;29;20061;-90
2022/12/04 03:27:14;;;;;;;1.50;1.40;;;;;;;-11.87;84.26;102269.59;4895907;29;20049;-90
2022/12/04 03:29:45;;;;;;;1.35;1.25;;;;;;;-11.89;84.42;102260.94;4899315;29;20060;-91
2022/12/04 03:32:38;;;;;;;1.40;1.30;;;;;;;-11.93;84.34;102266.19;4884750;29;20120;-91
2022/12/04 03:35:46;;;;;;;1.40;1.30;;;;;;;-11.94;84.62;102280.13;4901724;29;20048;-90
2022/12/04 03:38:32;;;;;;;1.38;1.27;;;;;;;-11.98;84.63;102279.28;4886885;29;20065;-90
2022/12/04 03:41:26;;;;;;;1.38;1.27;;;;;;;-12.02;84.57;102278.47;4879558;29;20136;-87
2022/12/04 03:44:24;;;;;;;1.40;1.30;;;;;;;-12.06;84.60;102275.91;4869332;29;20094;-87
2022/12/04 03:47:13;;;;;;;1.50;1.40;;;;;;;-12.10;84.78;102275.13;4881709;29;20061;-88
2022/12/04 03:49:57;;;;;;;1.50;1.40;;;;;;;-12.11;85.00;102278.59;4877451;29;20512;-88
2022/12/04 03:52:51;;;;;;;1.48;1.38;;;;;;;-12.07;84.81;102276.81;4881064;29;20139;-88
2022/12/04 03:55:26;;;;;;;1.50;1.40;;;;;;;-12.11;84.76;102277.72;4878333;29;20059;-89
2022/12/04 03:57:58;;;;;;;1.25;1.20;;;;;;;-12.12;84.63;102279.47;4878612;29;20057;-89
2022/12/04 04:00:25;;;;;;;1.52;1.42;;;;;;;-12.14;84.77;102286.44;4878811;29;20117;-88
2022/12/04 04:02:57;;;;;;;1.30;1.20;;;;;;;-12.15;84.96;102281.25;4880889;29;20131;-88
2022/12/04 04:05:26;;;;;;;1.45;1.35;;;;;;;-12.17;84.89;102283.03;4901114;29;20036;-88
2022/12/04 04:10:48;;;;;;;1.40;1.30;;;;;;;-12.19;85.04;102276.97;4898555;29;20139;-87
2022/12/04 04:24:28;;;;;;;1.35;1.25;;;;;;;-12.23;85.03;102297.84;4894839;29;20111;-84
2022/12/04 04:26:57;;;;;;;1.35;1.25;;;;;;;-12.25;84.77;102283.97;4887627;29;20144;-84
2022/12/04 04:29:24;;;;;;;1.05;1.05;;;;;;;-12.28;84.78;102293.56;4899418;29;20063;-86
2022/12/04 04:32:10;;;;;;;1.60;1.50;;;;;;;-12.27;84.85;102298.75;4895955;29;20140;-84
2022/12/04 04:34:53;;;;;;;1.50;1.40;;;;;;;-12.26;84.82;102295.25;4890750;29;20424;-84
2022/12/04 04:37:41;;;;;;;1.20;1.20;;;;;;;-12.28;85.04;102296.16;4891343;29;20062;-82
2022/12/04 04:40:26;;;;;;;1.15;1.15;;;;;;;-12.30;84.82;102296.19;4895677;29;20167;-83
2022/12/04 04:43:02;;;;;;;1.50;1.40;;;;;;;-12.29;84.59;102302.25;4897585;29;20060;-84
2022/12/04 04:45:43;;;;;;;1.60;1.50;;;;;;;-12.30;84.53;102300.53;4900718;29;20551;-88
2022/12/04 04:48:30;;;;;;;1.48;1.38;;;;;;;-12.29;84.50;102305.72;4906569;29;20531;-87
2022/12/04 04:50:59;;;;;;;1.38;1.27;;;;;;;-12.29;84.31;102305.72;4891324;29;20057;-86
2022/12/04 04:53:29;;;;;;;1.30;1.20;;;;;;;-12.33;84.38;102309.25;4876180;29;20049;-87
2022/12/04 04:55:57;;;;;;;1.48;1.38;;;;;;;-12.37;84.43;102307.53;4868224;29;20076;-86
2022/12/04 04:58:24;;;;;;;1.40;1.30;;;;;;;-12.34;84.35;102310.09;4895467;29;20052;-84
2022/12/04 05:01:10;;;;;;;1.30;1.20;;;;;;;-12.35;84.16;102305.78;4889106;29;20108;-84
2022/12/04 05:03:37;;;;;;;1.40;1.30;;;;;;;-12.38;84.20;102308.44;4895374;29;20508;-82
2022/12/04 05:06:05;;;;;;;1.52;1.42;;;;;;;-12.40;84.33;102318.00;4890998;29;20057;-82
2022/12/04 05:08:33;;;;;;;1.67;1.58;;;;;;;-12.48;84.48;102317.19;4888188;29;20109;-85
2022/12/04 05:11:00;;;;;;;1.58;1.48;;;;;;;-12.48;84.64;102312.88;4892921;29;20056;-84
2022/12/04 05:13:28;;;;;;;1.48;1.38;;;;;;;-12.47;84.51;102308.53;4893494;29;20449;-85
2022/12/04 05:16:01;;;;;;;1.50;1.40;;;;;;;-12.49;84.82;102312.88;4889999;29;20052;-84
2022/12/04 05:18:29;;;;;;;1.50;1.40;;;;;;;-12.50;84.56;102318.97;4882019;29;20056;-83
2022/12/04 05:20:56;;;;;;;1.42;1.33;;;;;;;-12.52;84.66;102311.19;4891213;29;20049;-86
2022/12/04 05:23:23;;;;;;;1.50;1.40;;;;;;;-12.54;84.78;102310.31;4883597;29;20125;-83
2022/12/04 05:25:58;;;;;;;1.40;1.30;;;;;;;-12.51;84.76;102314.63;4879042;29;20109;-83
2022/12/04 05:28:26;;;;;;;1.73;1.63;;;;;;;-12.51;84.80;102317.25;4879103;29;20049;-83
2022/12/04 05:31:01;;;;;;;1.55;1.45;;;;;;;-12.45;84.91;102314.59;4538628;29;9999896;-82
2022/12/04 05:33:29;;;;;;;1.58;1.48;;;;;;;-12.44;84.65;102329.31;4894977;29;20060;-81
2022/12/04 05:35:58;;;;;;;1.60;1.50;;;;;;;-12.45;84.52;102325.00;4877951;29;20055;-81
2022/12/04 05:38:27;;;;;;;1.50;1.40;;;;;;;-12.41;84.40;102331.88;4877593;29;20513;-84
2022/12/04 05:40:57;;;;;;;1.60;1.50;;;;;;;-12.51;84.42;102312.88;4873391;29;20738;-84
2022/12/04 05:43:24;;;;;;;1.48;1.38;;;;;;;-12.45;84.62;102325.84;4880458;29;20049;-88
2022/12/04 05:45:51;;;;;;;1.55;1.45;;;;;;;-12.39;84.26;102330.13;4892368;29;20053;-87
2022/12/04 05:48:18;;;;;;;1.50;1.40;;;;;;;-12.36;84.15;102340.50;4891247;29;20530;-86
2022/12/04 05:50:46;;;;;;;1.70;1.60;;;;;;;-12.33;84.18;102334.38;4902281;29;20052;-82
2022/12/04 05:53:14;;;;;;;1.60;1.50;;;;;;;-12.30;84.00;102335.25;4885187;29;20472;-85
2022/12/04 05:55:40;;;;;;;1.60;1.50;;;;;;;-12.24;83.81;102340.38;4883450;29;20104;-86
2022/12/04 05:58:08;;;;;;;1.58;1.48;;;;;;;-12.24;83.60;102329.94;4894108;29;20048;-86
2022/12/04 06:00:35;;;;;;;1.60;1.50;;;;;;;-12.19;83.47;102334.25;4890110;29;20643;-84
2022/12/04 06:03:02;;;;;;;1.60;1.50;;;;;;;-12.14;83.31;102338.53;4884695;29;20064;-81
2022/12/04 06:05:31;;;;;;;1.45;1.35;;;;;;;-12.11;83.02;102335.88;4884384;29;20055;-83
2022/12/04 06:07:58;;;;;;;1.67;1.58;;;;;;;-12.06;82.74;102335.81;4877309;29;20060;-81
2022/12/04 06:10:25;;;;;;;1.60;1.50;;;;;;;-11.99;82.62;102342.69;4910150;29;20210;-87
2022/12/04 06:12:56;;;;;;;1.63;1.52;;;;;;;-11.96;82.44;102342.63;4845972;29;20063;-88
2022/12/04 06:15:23;;;;;;;1.60;1.50;;;;;;;-11.95;82.53;102341.75;4896939;29;20163;-88
2022/12/04 06:17:51;;;;;;;1.30;1.20;;;;;;;-11.88;82.13;102342.53;4901788;29;20059;-91
2022/12/04 06:20:18;;;;;;;1.60;1.50;;;;;;;-11.87;82.16;102345.16;4895343;29;20049;-86
2022/12/04 06:22:46;;;;;;;1.60;1.50;;;;;;;-11.83;81.88;102346.78;4898246;29;20056;-88
2022/12/04 06:25:13;;;;;;;1.60;1.50;;;;;;;-11.74;81.86;102350.16;4891639;29;20148;-88
2022/12/04 06:27:42;;;;;;;1.70;1.60;;;;;;;-11.71;81.73;102350.97;4889555;29;20094;-89
2022/12/04 06:30:10;;;;;;;1.65;1.55;;;;;;;-11.73;81.39;102341.47;4893315;29;20067;-89
2022/12/04 06:33:36;;;;;;;1.60;1.50;;;;;;;-11.71;81.57;102355.34;4906878;29;20510;-87
2022/12/04 06:36:09;;;;;;;1.40;1.30;;;;;;;-11.74;81.35;102355.38;4902617;29;20077;-88
2022/12/04 06:38:40;;;;;;;1.48;1.38;;;;;;;-11.77;81.14;102356.28;4899909;29;20508;-84
2022/12/04 06:41:12;;;;;;;0.95;0.95;;;;;;;-11.78;81.21;102355.38;4905887;29;20080;-84
2022/12/04 06:43:41;;;;;;;1.60;1.50;;;;;;;-11.79;81.05;102351.06;4926054;29;20052;-86
2022/12/04 06:46:19;;;;;;;1.50;1.40;;;;;;;-11.82;80.98;102342.44;4901631;29;20060;-85
2022/12/04 06:48:48;;;;;;;1.60;1.50;;;;;;;-11.80;80.81;102351.97;4898798;29;20063;-85
2022/12/04 06:51:18;;;;;;;1.55;1.45;;;;;;;-11.79;80.55;102348.47;4900299;29;20075;-86
2022/12/04 06:53:45;;;;;;;1.70;1.60;;;;;;;-11.74;80.29;102348.41;4894501;29;20100;-88
2022/12/04 06:56:16;;;;;;;1.27;1.20;;;;;;;-11.62;80.03;102360.41;4899529;29;20055;-89
2022/12/04 06:58:45;;;;;;;1.70;1.60;;;;;;;-11.49;80.07;102351.56;4899487;29;20079;-87
2022/12/04 07:01:15;;;;;;;1.60;1.50;;;;;;;-11.35;79.68;102360.00;4899273;29;20526;-87
2022/12/04 07:03:43;;;;;;;1.50;1.40;;;;;;;-11.16;79.22;102344.97;4899582;29;20053;-84
2022/12/04 07:06:21;;;;;;;1.63;1.52;;;;;;;-10.87;78.73;102354.06;4881365;29;20080;-86
2022/12/04 07:08:51;;;;;;;1.60;1.50;;;;;;;-10.76;77.99;102359.09;4897053;29;20056;-87
2022/12/04 07:11:19;;;;;;;1.60;1.50;;;;;;;-10.75;77.77;102359.06;4884537;29;20059;-88
2022/12/04 07:13:46;;;;;;;1.60;1.50;;;;;;;-10.57;77.30;102359.66;4881555;29;20049;-84
2022/12/04 07:16:19;;;;;;;1.40;1.30;;;;;;;-10.54;76.75;102359.59;4912020;29;20105;-88
2022/12/04 07:18:49;;;;;;;1.50;1.40;;;;;;;-10.42;76.14;102371.56;4906813;29;20045;-88
2022/12/04 07:21:17;;;;;;;1.70;1.60;;;;;;;-10.25;75.79;102367.72;4898141;29;20055;-87
2022/12/04 07:23:48;;;;;;;1.50;1.40;;;;;;;-10.08;75.22;102370.00;4893558;29;20087;-85
2022/12/04 07:26:16;;;;;;;1.38;1.27;;;;;;;-9.93;74.91;102370.59;4892187;29;20117;-84
2022/12/04 07:28:45;;;;;;;1.40;1.30;;;;;;;-9.83;74.05;102369.50;4891293;29;20060;-82
2022/12/04 07:31:15;;;;;;;1.60;1.50;;;;;;;-9.68;73.90;102356.13;4898495;29;20440;-82
2022/12/04 07:33:44;;;;;;;1.50;1.40;;;;;;;-9.51;73.41;102362.75;4872563;29;20105;-84
2022/12/04 07:36:14;;;;;;;1.70;1.60;;;;;;;-9.34;72.42;102376.31;4875988;29;20136;-87
2022/12/04 07:38:42;;;;;;;1.65;1.55;;;;;;;-9.41;71.89;102377.34;4874417;29;20247;-88
2022/12/04 07:41:11;;;;;;;1.70;1.60;;;;;;;-9.16;71.24;102380.25;4875402;29;20049;-86
2022/12/04 07:43:38;;;;;;;1.60;1.50;;;;;;;-9.10;70.73;102377.50;4874704;29;20105;-86
2022/12/04 07:46:11;;;;;;;1.52;1.42;;;;;;;-8.82;70.31;102380.31;4881221;29;20045;-87
2022/12/04 07:48:39;;;;;;;1.40;1.30;;;;;;;-8.56;69.89;102384.03;4867699;29;20556;-87
2022/12/04 07:51:10;;;;;;;1.50;1.40;;;;;;;-8.36;69.35;102381.72;4876856;29;20056;-87
2022/12/04 07:53:38;;;;;;;1.60;1.50;;;;;;;-8.29;68.38;102393.75;4880172;29;20053;-86
2022/12/04 07:56:07;;;;;;;1.35;1.25;;;;;;;-8.14;68.39;102386.41;4879648;29;20049;-84
2022/12/04 07:58:34;;;;;;;1.40;1.30;;;;;;;-7.82;67.71;102393.38;4879503;29;20413;-87
2022/12/04 08:01:11;;;;;;;1.40;1.30;;;;;;;-7.75;66.86;102380.94;4879638;29;20061;-86
2022/12/04 08:03:43;;;;;;;1.38;1.27;;;;;;;-7.44;65.85;102380.91;4862917;29;20124;-87
2022/12/04 08:06:19;;;;;;;1.40;1.30;;;;;;;-7.40;65.39;102374.63;4866114;29;20060;-86
2022/12/04 08:08:47;;;;;;;1.48;1.38;;;;;;;-7.20;65.11;102376.66;4865567;29;20052;-87
2022/12/04 08:11:17;;;;;;;1.50;1.40;;;;;;;-7.00;64.29;102373.41;4876110;29;20056;-85
2022/12/04 08:13:45;;;;;;;1.35;1.25;;;;;;;-6.78;63.74;102363.91;4875365;29;20061;-84
2022/12/04 08:16:12;;;;;;;1.10;1.10;;;;;;;-6.70;63.12;102374.16;4874641;29;20053;-84
2022/12/04 08:18:40;;;;;;;1.40;1.30;;;;;;;-6.78;62.92;102368.31;4880719;29;20155;-86
2022/12/04 08:21:11;;;;;;;1.10;1.10;;;;;;;-6.91;62.82;102366.97;4874445;29;20060;-84
2022/12/04 08:23:39;;;;;;;1.30;1.20;;;;;;;-6.82;62.85;102371.94;4882939;29;20135;-83
2022/12/04 08:26:07;;;;;;;1.38;1.27;;;;;;;-7.08;62.95;102373.66;4887106;29;20503;-84
2022/12/04 08:28:35;;;;;;;1.10;1.10;;;;;;;-7.38;63.06;102382.47;4883938;29;20147;-87
2022/12/04 08:31:03;;;;;;;1.05;1.05;;;;;;;-7.41;62.60;102375.56;4880855;29;20129;-84
2022/12/04 08:33:31;;;;;;;0.85;0.85;;;;;;;-7.15;62.08;102374.75;4878933;29;20049;-85
2022/12/04 08:35:58;;;;;;;1.13;1.13;;;;;;;-7.12;60.93;102371.16;4877804;29;20041;-86
2022/12/04 08:38:26;;;;;;;1.10;1.10;;;;;;;-6.82;59.93;102366.69;4878683;29;20076;-87
2022/12/04 08:40:52;;;;;;;1.25;1.17;;;;;;;-6.60;59.79;102369.47;4878113;29;20053;-85
2022/12/04 08:43:20;;;;;;;1.35;1.25;;;;;;;-7.15;58.88;102374.75;4881239;29;20053;-86
2022/12/04 08:46:01;;;;;;;1.30;1.20;;;;;;;-7.29;59.43;102375.19;4883294;29;20056;-85
2022/12/04 08:48:28;;;;;;;1.40;1.30;;;;;;;-6.63;59.20;102378.31;4881305;29;20057;-86
2022/12/04 08:50:57;;;;;;;1.25;1.20;;;;;;;-6.22;58.28;102368.16;4888063;29;20057;-85
2022/12/04 08:53:31;;;;;;;1.10;1.10;;;;;;;-6.16;57.65;102373.16;4884028;29;20053;-85
2022/12/04 08:56:13;;;;;;;1.10;1.10;;;;;;;-5.81;57.12;102371.00;4880147;29;20076;-86
2022/12/04 08:58:40;;;;;;;1.10;1.10;;;;;;;-6.00;56.63;102354.22;4883614;29;20052;-86
2022/12/04 09:01:10;;;;;;;1.30;1.20;;;;;;;-5.61;56.72;102366.78;4865070;29;20063;-85
2022/12/04 09:03:39;;;;;;;1.30;1.20;;;;;;;-5.41;56.41;102351.09;4882041;29;20508;-86
2022/12/04 09:06:08;;;;;;;1.10;1.10;;;;;;;-5.33;55.44;102356.91;4879722;29;20053;-85
2022/12/04 09:08:36;;;;;;;0.93;0.93;;;;;;;-5.23;55.09;102360.03;4882841;29;20052;-87
2022/12/04 09:11:10;;;;;;;1.05;1.05;;;;;;;-5.26;55.27;102355.75;4867068;29;20071;-86
2022/12/04 09:13:37;;;;;;;1.10;1.10;;;;;;;-5.24;55.28;102343.38;4886635;29;20059;-85
2022/12/04 09:16:07;;;;;;;1.05;1.05;;;;;;;-4.93;55.11;102357.94;4886729;29;20057;-85
2022/12/04 09:18:35;;;;;;;1.02;1.02;;;;;;;-4.59;54.22;102356.53;4887788;29;20056;-85
2022/12/04 09:21:05;;;;;;;1.00;1.00;;;;;;;-4.33;53.86;102344.00;4887037;29;20080;-85
2022/12/04 09:23:33;;;;;;;0.90;0.90;;;;;;;-4.44;52.53;102349.75;4887680;29;20055;-86
2022/12/04 09:26:01;;;;;;;1.00;1.00;;;;;;;-4.64;52.85;102359.34;4885136;29;20057;-85
2022/12/04 09:28:28;;;;;;;0.90;0.90;;;;;;;-4.37;52.79;102340.66;4882986;29;20077;-84
2022/12/04 09:31:00;;;;;;;1.00;1.00;;;;;;;-3.97;51.99;102345.03;4867732;29;20086;-85
2022/12/04 09:33:34;;;;;;;1.15;1.13;;;;;;;-4.13;51.29;102349.28;4880590;29;20076;-85
2022/12/04 09:36:02;;;;;;;1.10;1.10;;;;;;;-4.41;51.04;102346.97;4879575;29;20052;-86
2022/12/04 09:38:33;;;;;;;1.00;1.00;;;;;;;-4.63;51.20;102344.44;4883301;29;20060;-84
2022/12/04 09:41:23;;;;;;;0.90;0.90;;;;;;;-4.58;51.85;102353.00;4884532;29;20064;-84
2022/12/04 09:44:07;;;;;;;0.90;0.90;;;;;;;-4.39;51.54;102353.91;4880361;29;20535;-86
2022/12/04 09:46:40;;;;;;;1.10;1.10;;;;;;;-4.21;51.36;102352.25;4881305;29;20100;-83
2022/12/04 09:49:58;;;;;;;1.10;1.10;;;;;;;-4.18;50.28;102344.22;4864854;29;20064;-84
2022/12/04 09:52:33;;;;;;;1.00;1.00;;;;;;;-4.34;50.76;102351.06;4839824;29;20148;-85
2022/12/04 09:55:03;;;;;;;0.88;0.88;;;;;;;-4.18;50.73;102345.97;4813714;29;20053;-89
2022/12/04 09:57:37;;;;;;;1.00;1.00;;;;;;;-3.72;50.67;102349.22;4825016;29;20056;-86
2022/12/04 10:00:06;;;;;;;0.90;0.90;;;;;;;-3.72;50.16;102342.16;4824256;29;20093;-84
2022/12/04 10:02:38;;;;;;;1.00;1.00;;;;;;;-3.98;50.23;102338.03;4836894;29;20157;-85
2022/12/04 10:05:13;;;;;;;1.10;1.10;;;;;;;-4.27;50.46;102335.84;4834772;29;20057;-83
2022/12/04 10:07:47;;;;;;;0.90;0.90;;;;;;;-4.44;50.65;102332.16;4805785;29;20062;-82
2022/12/04 10:10:34;;;;;;;0.90;0.90;;;;;;;-4.36;50.36;102332.66;4837192;29;20077;-83
2022/12/04 10:13:24;;;;;;;1.00;1.00;;;;;;;-4.24;49.71;102335.72;4472337;29;10001053;-84
2022/12/04 10:16:14;;;;;;;0.93;0.93;;;;;;;-4.06;49.57;102334.03;4817153;29;20058;-84
2022/12/04 10:19:35;;;;;;;1.00;1.00;;;;;;;-4.12;49.76;102342.25;4817620;29;20054;-83
2022/12/04 10:22:14;;;;;;;0.93;0.93;;;;;;;-3.68;49.66;102342.84;4805223;29;20063;-83
2022/12/04 10:24:48;;;;;;;0.90;0.90;;;;;;;-3.52;49.44;102335.06;4806009;29;20070;-85
2022/12/04 10:27:40;;;;;;;1.50;1.40;;;;;;;-3.43;48.17;102332.00;4805988;29;20088;-85
2022/12/04 10:30:16;;;;;;;1.05;1.05;;;;;;;-3.59;48.56;102323.94;4866086;29;20057;-82
2022/12/04 10:32:44;;;;;;;1.00;1.00;;;;;;;-3.63;48.17;102321.50;4856375;29;20144;-84
2022/12/04 10:35:28;;;;;;;1.00;1.00;;;;;;;-3.72;48.27;102328.09;4841288;29;20048;-82
2022/12/04 10:38:02;;;;;;;0.88;0.88;;;;;;;-3.61;48.49;102328.44;4872598;29;20053;-83
2022/12/04 10:40:50;;;;;;;1.00;1.00;;;;;;;-3.86;48.94;102325.22;4855897;29;20071;-84
2022/12/04 10:43:41;;;;;;;0.90;0.90;;;;;;;-4.25;48.86;102319.03;4856444;29;20132;-84
2022/12/04 10:46:13;;;;;;;0.90;0.90;;;;;;;-4.45;49.38;102312.00;4856318;29;20056;-83
2022/12/04 10:48:41;;;;;;;0.80;0.80;;;;;;;-4.51;49.80;102320.16;4872219;29;20057;-84
2022/12/04 10:51:20;;;;;;;0.90;0.90;;;;;;;-4.37;49.69;102309.88;4872058;29;20072;-84
2022/12/04 10:53:48;;;;;;;0.70;0.70;;;;;;;-4.51;50.09;102309.59;4876475;29;20053;-83
2022/12/04 10:56:18;;;;;;;1.00;1.00;;;;;;;-4.43;50.25;102302.25;4875730;29;20060;-82
2022/12/04 10:59:02;;;;;;;1.02;1.02;;;;;;;-4.48;49.64;102322.69;4878251;29;20053;-85
2022/12/04 11:01:32;;;;;;;0.90;0.90;;;;;;;-4.41;49.78;102310.06;4875230;29;20071;-82
2022/12/04 11:04:08;;;;;;;0.80;0.80;;;;;;;-4.53;49.89;102314.13;4873626;29;20060;-81
2022/12/04 11:06:38;;;;;;;0.93;0.93;;;;;;;-4.25;49.66;102312.91;4874176;29;20086;-82
2022/12/04 11:09:05;;;;;;;1.00;1.00;;;;;;;-4.08;49.58;102305.06;4874057;29;20057;-82
2022/12/04 11:11:33;;;;;;;0.73;0.73;;;;;;;-4.07;49.02;102305.94;4874027;29;20180;-83
2022/12/04 11:14:11;;;;;;;1.08;1.08;;;;;;;-4.19;49.62;102307.34;4873971;29;20397;-82
2022/12/04 11:16:43;;;;;;;0.80;0.80;;;;;;;-4.07;49.71;102317.34;4856888;29;20091;-82
2022/12/04 11:19:18;;;;;;;0.80;0.80;;;;;;;-4.03;49.31;102303.06;4873419;29;20125;-83
2022/12/04 11:21:46;;;;;;;0.90;0.90;;;;;;;-3.83;49.47;102310.09;4873110;29;20428;-81
2022/12/04 11:24:31;;;;;;;0.80;0.80;;;;;;;-4.02;49.65;102310.09;4873202;29;20049;-82
2022/12/04 11:27:01;;;;;;;0.82;0.82;;;;;;;-4.43;49.90;102304.88;4856489;29;20049;-83
2022/12/04 11:29:35;;;;;;;0.70;0.70;;;;;;;-4.62;50.82;102309.22;4872342;29;20052;-83
2022/12/04 11:32:04;;;;;;;0.80;0.80;;;;;;;-4.85;51.07;102313.69;4856683;29;20080;-85
2022/12/04 11:34:38;;;;;;;0.90;0.90;;;;;;;-5.08;51.57;102305.88;4873273;29;20540;-84
2022/12/04 11:37:06;;;;;;;0.80;0.80;;;;;;;-5.01;51.65;102310.00;4873620;29;20524;-84
2022/12/04 11:39:38;;;;;;;0.95;0.95;;;;;;;-5.05;51.51;102311.03;4873161;29;20351;-84
2022/12/04 11:42:17;;;;;;;0.70;0.70;;;;;;;-5.12;52.05;102299.88;4872148;29;20445;-84
2022/12/04 11:44:54;;;;;;;0.80;0.80;;;;;;;-5.29;51.95;102297.94;4872332;29;20068;-85
2022/12/04 11:47:25;;;;;;;0.85;0.85;;;;;;;-5.34;52.12;102302.53;4857146;29;20056;-85
2022/12/04 11:50:18;;;;;;;0.85;0.85;;;;;;;-5.33;52.23;102304.25;4871971;29;20041;-85
2022/12/04 11:52:54;;;;;;;0.85;0.85;;;;;;;-5.43;52.46;102295.00;4841487;29;20505;-82
2022/12/04 11:55:25;;;;;;;0.90;0.90;;;;;;;-5.71;52.83;102293.44;4872249;29;20044;-82
2022/12/04 11:58:13;;;;;;;0.80;0.80;;;;;;;-5.86;53.04;102291.41;4873534;29;20132;-82
2022/12/04 12:00:45;;;;;;;;;;;;;;;-6.06;53.63;102293.97;4874853;29;20121;-83
2022/12/04 12:03:17;;;;;;;0.90;0.90;;;;;;;-6.30;53.61;102287.81;4873492;29;20338;-84